sensor_id;sensor_type;location;lat;lon;timestamp;temperature;humidity
31542;DHT22;18152;49.986;8.646;2023-07-31T00:00:07;17.10;99.90
31542;DHT22;18152;49.986;8.646;2023-07-31T00:02:34;17.10;99.90
31542;DHT22;18152;49.986;8.646;2023-07-31T00:05:01;17.20;99.90
31542;DHT22;18152;49.986;8.646;2023-07-31T00:07:26;17.20;99.90
31542;DHT22;18152;49.986;8.646;2023-07-31T00:09:52;17.10;99.90
31542;DHT22;18152;49.986;8.646;2023-07-31T00:12:19;17.20;99.90
31542;DHT22;18152;49.986;8.646;2023-07-31T00:14:45;17.20;99.90
31542;DHT22;18152;49.986;8.646;2023-07-31T00:17:11;17.20;99.90
31542;DHT22;18152;49.986;8.646;2023-07-31T00:19:37;17.30;99.90
31542;DHT22;18152;49.986;8.646;2023-07-31T00:22:02;17.30;99.90
31542;DHT22;18152;49.986;8.646;2023-07-31T00:24:28;17.30;99.90
31542;DHT22;18152;49.986;8.646;2023-07-31T00:26:54;17.40;99.90
31542;DHT22;18152;49.986;8.646;2023-07-31T00:29:19;17.40;99.90
31542;DHT22;18152;49.986;8.646;2023-07-31T00:31:45;17.40;99.90
31542;DHT22;18152;49.986;8.646;2023-07-31T00:34:10;17.50;99.90
31542;DHT22;18152;49.986;8.646;2023-07-31T00:36:36;17.50;99.90
31542;DHT22;18152;49.986;8.646;2023-07-31T00:39:01;17.50;99.90
31542;DHT22;18152;49.986;8.646;2023-07-31T00:41:27;17.50;99.90
31542;DHT22;18152;49.986;8.646;2023-07-31T00:43:52;17.60;99.90
31542;DHT22;18152;49.986;8.646;2023-07-31T00:46:18;17.50;99.90
31542;DHT22;18152;49.986;8.646;2023-07-31T00:48:44;17.50;99.90
31542;DHT22;18152;49.986;8.646;2023-07-31T00:51:10;17.60;99.90
31542;DHT22;18152;49.986;8.646;2023-07-31T00:53:36;17.60;99.90
31542;DHT22;18152;49.986;8.646;2023-07-31T00:56:01;17.60;99.90
31542;DHT22;18152;49.986;8.646;2023-07-31T00:58:28;17.60;99.90
31542;DHT22;18152;49.986;8.646;2023-07-31T01:00:53;17.60;99.90
31542;DHT22;18152;49.986;8.646;2023-07-31T01:03:19;17.60;99.90
31542;DHT22;18152;49.986;8.646;2023-07-31T01:11:25;17.60;99.90
31542;DHT22;18152;49.986;8.646;2023-07-31T01:13:54;17.60;99.90
31542;DHT22;18152;49.986;8.646;2023-07-31T01:16:20;17.50;99.90
31542;DHT22;18152;49.986;8.646;2023-07-31T01:18:45;17.60;99.90
31542;DHT22;18152;49.986;8.646;2023-07-31T01:24:19;17.60;99.90
31542;DHT22;18152;49.986;8.646;2023-07-31T01:26:56;17.60;99.90
31542;DHT22;18152;49.986;8.646;2023-07-31T01:29:25;17.60;99.90
31542;DHT22;18152;49.986;8.646;2023-07-31T01:31:53;17.60;99.90
31542;DHT22;18152;49.986;8.646;2023-07-31T01:34:21;17.60;99.90
31542;DHT22;18152;49.986;8.646;2023-07-31T01:36:47;17.50;99.90
31542;DHT22;18152;49.986;8.646;2023-07-31T01:39:13;17.50;99.90
31542;DHT22;18152;49.986;8.646;2023-07-31T01:41:40;17.50;99.90
31542;DHT22;18152;49.986;8.646;2023-07-31T01:44:06;17.50;99.90
31542;DHT22;18152;49.986;8.646;2023-07-31T01:46:32;17.50;99.90
31542;DHT22;18152;49.986;8.646;2023-07-31T01:48:57;17.60;99.90
31542;DHT22;18152;49.986;8.646;2023-07-31T01:51:23;17.60;99.90
31542;DHT22;18152;49.986;8.646;2023-07-31T01:53:48;17.50;99.90
31542;DHT22;18152;49.986;8.646;2023-07-31T01:56:14;17.50;99.90
31542;DHT22;18152;49.986;8.646;2023-07-31T01:58:39;17.60;99.90
31542;DHT22;18152;49.986;8.646;2023-07-31T02:01:05;17.60;99.90
31542;DHT22;18152;49.986;8.646;2023-07-31T02:03:30;17.60;99.90
31542;DHT22;18152;49.986;8.646;2023-07-31T02:05:56;17.60;99.90
31542;DHT22;18152;49.986;8.646;2023-07-31T02:08:22;17.50;99.90
31542;DHT22;18152;49.986;8.646;2023-07-31T02:10:47;17.60;99.90
31542;DHT22;18152;49.986;8.646;2023-07-31T02:13:14;17.60;99.90
31542;DHT22;18152;49.986;8.646;2023-07-31T02:15:40;17.50;99.90
31542;DHT22;18152;49.986;8.646;2023-07-31T02:18:05;17.50;99.90
31542;DHT22;18152;49.986;8.646;2023-07-31T02:20:34;17.40;99.90
31542;DHT22;18152;49.986;8.646;2023-07-31T02:23:00;17.50;99.90
31542;DHT22;18152;49.986;8.646;2023-07-31T02:25:25;17.60;99.90
31542;DHT22;18152;49.986;8.646;2023-07-31T02:27:51;17.50;99.90
31542;DHT22;18152;49.986;8.646;2023-07-31T02:30:16;17.50;99.90
31542;DHT22;18152;49.986;8.646;2023-07-31T02:32:42;17.50;99.90
31542;DHT22;18152;49.986;8.646;2023-07-31T02:35:08;17.50;99.90
31542;DHT22;18152;49.986;8.646;2023-07-31T02:37:34;17.50;99.90
31542;DHT22;18152;49.986;8.646;2023-07-31T02:39:59;17.50;99.90
31542;DHT22;18152;49.986;8.646;2023-07-31T02:42:25;17.50;99.90
31542;DHT22;18152;49.986;8.646;2023-07-31T02:44:50;17.50;99.90
31542;DHT22;18152;49.986;8.646;2023-07-31T02:47:21;17.50;99.90
31542;DHT22;18152;49.986;8.646;2023-07-31T02:49:47;17.50;99.90
31542;DHT22;18152;49.986;8.646;2023-07-31T02:52:12;17.50;99.90
31542;DHT22;18152;49.986;8.646;2023-07-31T02:54:38;17.50;99.90
31542;DHT22;18152;49.986;8.646;2023-07-31T02:57:04;17.50;99.90
31542;DHT22;18152;49.986;8.646;2023-07-31T02:59:29;17.60;99.90
31542;DHT22;18152;49.986;8.646;2023-07-31T03:01:55;17.50;99.90
31542;DHT22;18152;49.986;8.646;2023-07-31T03:04:21;17.50;99.90
31542;DHT22;18152;49.986;8.646;2023-07-31T03:06:46;17.50;99.90
31542;DHT22;18152;49.986;8.646;2023-07-31T03:09:12;17.50;99.90
31542;DHT22;18152;49.986;8.646;2023-07-31T03:11:37;17.50;99.90
31542;DHT22;18152;49.986;8.646;2023-07-31T03:14:03;17.40;99.90
31542;DHT22;18152;49.986;8.646;2023-07-31T03:16:28;17.40;99.90
31542;DHT22;18152;49.986;8.646;2023-07-31T03:18:54;17.40;99.90
31542;DHT22;18152;49.986;8.646;2023-07-31T03:21:20;17.40;99.90
31542;DHT22;18152;49.986;8.646;2023-07-31T03:23:45;17.30;99.90
31542;DHT22;18152;49.986;8.646;2023-07-31T03:26:11;17.30;99.90
31542;DHT22;18152;49.986;8.646;2023-07-31T03:28:36;17.30;99.90
31542;DHT22;18152;49.986;8.646;2023-07-31T03:31:02;17.20;99.90
31542;DHT22;18152;49.986;8.646;2023-07-31T03:33:28;17.20;99.90
31542;DHT22;18152;49.986;8.646;2023-07-31T03:35:53;17.30;99.90
31542;DHT22;18152;49.986;8.646;2023-07-31T03:38:19;17.20;99.90
31542;DHT22;18152;49.986;8.646;2023-07-31T03:40:45;17.20;99.90
31542;DHT22;18152;49.986;8.646;2023-07-31T03:43:11;17.20;99.90
31542;DHT22;18152;49.986;8.646;2023-07-31T03:45:37;17.20;99.90
31542;DHT22;18152;49.986;8.646;2023-07-31T03:48:03;17.20;99.90
31542;DHT22;18152;49.986;8.646;2023-07-31T03:50:29;17.20;99.90
31542;DHT22;18152;49.986;8.646;2023-07-31T03:52:54;17.10;99.90
31542;DHT22;18152;49.986;8.646;2023-07-31T03:55:20;17.10;99.90
31542;DHT22;18152;49.986;8.646;2023-07-31T03:57:47;17.10;99.90
31542;DHT22;18152;49.986;8.646;2023-07-31T04:00:12;17.10;99.90
31542;DHT22;18152;49.986;8.646;2023-07-31T04:02:38;17.10;99.90
31542;DHT22;18152;49.986;8.646;2023-07-31T04:05:04;17.10;99.90
31542;DHT22;18152;49.986;8.646;2023-07-31T04:07:29;17.10;99.90
31542;DHT22;18152;49.986;8.646;2023-07-31T04:09:56;17.00;99.90
31542;DHT22;18152;49.986;8.646;2023-07-31T04:12:21;17.10;99.90
31542;DHT22;18152;49.986;8.646;2023-07-31T04:14:47;17.10;99.90
31542;DHT22;18152;49.986;8.646;2023-07-31T04:17:15;17.00;99.90
31542;DHT22;18152;49.986;8.646;2023-07-31T04:19:42;17.00;99.90
31542;DHT22;18152;49.986;8.646;2023-07-31T04:22:08;17.00;99.90
31542;DHT22;18152;49.986;8.646;2023-07-31T04:24:33;17.00;99.90
31542;DHT22;18152;49.986;8.646;2023-07-31T04:26:59;17.00;99.90
31542;DHT22;18152;49.986;8.646;2023-07-31T04:29:24;17.00;99.90
31542;DHT22;18152;49.986;8.646;2023-07-31T04:31:50;16.90;99.90
31542;DHT22;18152;49.986;8.646;2023-07-31T04:34:15;16.90;99.90
31542;DHT22;18152;49.986;8.646;2023-07-31T04:36:41;16.90;99.90
31542;DHT22;18152;49.986;8.646;2023-07-31T04:39:06;16.90;99.90
31542;DHT22;18152;49.986;8.646;2023-07-31T04:41:32;16.90;99.90
31542;DHT22;18152;49.986;8.646;2023-07-31T04:43:58;16.90;99.90
31542;DHT22;18152;49.986;8.646;2023-07-31T04:46:23;16.80;99.90
31542;DHT22;18152;49.986;8.646;2023-07-31T04:48:49;16.90;99.90
31542;DHT22;18152;49.986;8.646;2023-07-31T04:51:14;16.90;99.90
31542;DHT22;18152;49.986;8.646;2023-07-31T04:53:40;17.00;99.90
31542;DHT22;18152;49.986;8.646;2023-07-31T04:56:05;16.90;99.90
31542;DHT22;18152;49.986;8.646;2023-07-31T04:58:31;16.90;99.90
31542;DHT22;18152;49.986;8.646;2023-07-31T05:00:56;17.00;99.90
31542;DHT22;18152;49.986;8.646;2023-07-31T05:03:22;17.10;99.90
31542;DHT22;18152;49.986;8.646;2023-07-31T05:05:48;17.10;99.90
31542;DHT22;18152;49.986;8.646;2023-07-31T05:08:13;17.10;99.90
31542;DHT22;18152;49.986;8.646;2023-07-31T05:10:39;17.10;99.90
31542;DHT22;18152;49.986;8.646;2023-07-31T05:13:04;17.10;99.90
31542;DHT22;18152;49.986;8.646;2023-07-31T05:15:30;17.10;99.90
31542;DHT22;18152;49.986;8.646;2023-07-31T05:17:56;17.10;99.90
31542;DHT22;18152;49.986;8.646;2023-07-31T05:20:21;17.10;99.90
31542;DHT22;18152;49.986;8.646;2023-07-31T05:22:47;17.20;99.90
31542;DHT22;18152;49.986;8.646;2023-07-31T05:25:13;17.20;99.90
31542;DHT22;18152;49.986;8.646;2023-07-31T05:27:38;17.20;99.90
31542;DHT22;18152;49.986;8.646;2023-07-31T05:30:05;17.20;99.90
31542;DHT22;18152;49.986;8.646;2023-07-31T05:32:32;17.20;99.90
31542;DHT22;18152;49.986;8.646;2023-07-31T05:34:58;17.20;99.90
31542;DHT22;18152;49.986;8.646;2023-07-31T05:37:23;17.20;99.90
31542;DHT22;18152;49.986;8.646;2023-07-31T05:39:49;17.20;99.90
31542;DHT22;18152;49.986;8.646;2023-07-31T05:42:14;17.20;99.90
31542;DHT22;18152;49.986;8.646;2023-07-31T05:44:40;17.20;99.90
31542;DHT22;18152;49.986;8.646;2023-07-31T05:47:05;17.10;99.90
31542;DHT22;18152;49.986;8.646;2023-07-31T05:49:31;17.20;99.90
31542;DHT22;18152;49.986;8.646;2023-07-31T05:51:57;17.20;99.90
31542;DHT22;18152;49.986;8.646;2023-07-31T05:54:22;17.20;99.90
31542;DHT22;18152;49.986;8.646;2023-07-31T05:56:48;17.20;99.90
31542;DHT22;18152;49.986;8.646;2023-07-31T05:59:13;17.20;99.90
31542;DHT22;18152;49.986;8.646;2023-07-31T06:01:39;17.30;99.90
31542;DHT22;18152;49.986;8.646;2023-07-31T06:04:05;17.30;99.90
31542;DHT22;18152;49.986;8.646;2023-07-31T06:06:30;17.30;99.90
31542;DHT22;18152;49.986;8.646;2023-07-31T06:08:56;17.40;99.90
31542;DHT22;18152;49.986;8.646;2023-07-31T06:11:22;17.40;99.90
31542;DHT22;18152;49.986;8.646;2023-07-31T06:13:47;17.50;99.90
31542;DHT22;18152;49.986;8.646;2023-07-31T06:16:14;17.60;99.90
31542;DHT22;18152;49.986;8.646;2023-07-31T06:18:41;17.80;99.90
31542;DHT22;18152;49.986;8.646;2023-07-31T06:21:07;18.00;99.90
31542;DHT22;18152;49.986;8.646;2023-07-31T06:23:32;18.00;99.90
31542;DHT22;18152;49.986;8.646;2023-07-31T06:25:58;18.10;99.90
31542;DHT22;18152;49.986;8.646;2023-07-31T06:28:28;18.10;99.90
31542;DHT22;18152;49.986;8.646;2023-07-31T06:30:54;18.00;99.90
31542;DHT22;18152;49.986;8.646;2023-07-31T06:33:20;17.90;99.90
31542;DHT22;18152;49.986;8.646;2023-07-31T06:35:45;17.80;99.90
31542;DHT22;18152;49.986;8.646;2023-07-31T06:38:11;18.00;99.90
31542;DHT22;18152;49.986;8.646;2023-07-31T06:40:36;18.30;99.90
31542;DHT22;18152;49.986;8.646;2023-07-31T06:43:02;18.60;99.90
31542;DHT22;18152;49.986;8.646;2023-07-31T06:45:34;18.60;99.90
31542;DHT22;18152;49.986;8.646;2023-07-31T06:48:00;18.70;99.90
31542;DHT22;18152;49.986;8.646;2023-07-31T06:50:36;18.40;99.90
31542;DHT22;18152;49.986;8.646;2023-07-31T06:53:02;18.30;99.90
31542;DHT22;18152;49.986;8.646;2023-07-31T06:55:28;18.20;99.90
31542;DHT22;18152;49.986;8.646;2023-07-31T06:57:55;18.10;99.90
31542;DHT22;18152;49.986;8.646;2023-07-31T07:00:21;18.20;99.90
31542;DHT22;18152;49.986;8.646;2023-07-31T07:02:48;18.20;99.90
31542;DHT22;18152;49.986;8.646;2023-07-31T07:05:14;18.20;99.90
31542;DHT22;18152;49.986;8.646;2023-07-31T07:07:40;18.10;99.90
31542;DHT22;18152;49.986;8.646;2023-07-31T07:10:06;18.10;99.90
31542;DHT22;18152;49.986;8.646;2023-07-31T07:12:32;18.10;99.90
31542;DHT22;18152;49.986;8.646;2023-07-31T07:14:59;18.00;99.90
31542;DHT22;18152;49.986;8.646;2023-07-31T07:17:25;17.90;99.90
31542;DHT22;18152;49.986;8.646;2023-07-31T07:19:51;17.90;99.90
31542;DHT22;18152;49.986;8.646;2023-07-31T07:22:17;18.00;99.90
31542;DHT22;18152;49.986;8.646;2023-07-31T07:24:43;18.00;99.90
31542;DHT22;18152;49.986;8.646;2023-07-31T07:27:09;18.10;99.90
31542;DHT22;18152;49.986;8.646;2023-07-31T07:29:35;18.20;99.90
31542;DHT22;18152;49.986;8.646;2023-07-31T07:32:00;18.30;99.90
31542;DHT22;18152;49.986;8.646;2023-07-31T07:34:27;18.60;99.90
31542;DHT22;18152;49.986;8.646;2023-07-31T07:36:53;19.00;99.90
31542;DHT22;18152;49.986;8.646;2023-07-31T07:39:18;19.30;99.90
31542;DHT22;18152;49.986;8.646;2023-07-31T07:41:44;19.30;99.90
31542;DHT22;18152;49.986;8.646;2023-07-31T07:44:13;19.50;99.90
31542;DHT22;18152;49.986;8.646;2023-07-31T07:46:41;19.60;99.90
31542;DHT22;18152;49.986;8.646;2023-07-31T07:49:16;19.60;99.90
31542;DHT22;18152;49.986;8.646;2023-07-31T07:51:51;19.60;99.90
31542;DHT22;18152;49.986;8.646;2023-07-31T07:54:20;20.20;99.90
31542;DHT22;18152;49.986;8.646;2023-07-31T07:56:48;20.50;99.90
31542;DHT22;18152;49.986;8.646;2023-07-31T07:59:15;20.20;99.90
31542;DHT22;18152;49.986;8.646;2023-07-31T08:01:40;20.30;99.90
31542;DHT22;18152;49.986;8.646;2023-07-31T08:04:06;20.40;99.90
31542;DHT22;18152;49.986;8.646;2023-07-31T08:06:31;21.10;99.90
31542;DHT22;18152;49.986;8.646;2023-07-31T08:08:57;21.30;99.90
31542;DHT22;18152;49.986;8.646;2023-07-31T08:11:22;21.30;99.90
31542;DHT22;18152;49.986;8.646;2023-07-31T08:13:49;21.70;99.90
31542;DHT22;18152;49.986;8.646;2023-07-31T08:16:15;21.60;99.90
31542;DHT22;18152;49.986;8.646;2023-07-31T08:18:41;20.80;99.90
31542;DHT22;18152;49.986;8.646;2023-07-31T08:21:08;20.30;99.90
31542;DHT22;18152;49.986;8.646;2023-07-31T08:23:34;20.10;99.90
31542;DHT22;18152;49.986;8.646;2023-07-31T08:25:59;20.10;99.90
31542;DHT22;18152;49.986;8.646;2023-07-31T08:28:25;19.90;99.90
31542;DHT22;18152;49.986;8.646;2023-07-31T08:30:51;19.70;99.90
31542;DHT22;18152;49.986;8.646;2023-07-31T08:33:16;19.70;99.90
31542;DHT22;18152;49.986;8.646;2023-07-31T08:35:42;19.50;99.90
31542;DHT22;18152;49.986;8.646;2023-07-31T08:38:07;19.60;99.90
31542;DHT22;18152;49.986;8.646;2023-07-31T08:40:37;19.60;99.90
31542;DHT22;18152;49.986;8.646;2023-07-31T08:43:04;19.60;99.90
31542;DHT22;18152;49.986;8.646;2023-07-31T08:45:30;19.70;99.90
31542;DHT22;18152;49.986;8.646;2023-07-31T08:47:56;19.70;99.90
31542;DHT22;18152;49.986;8.646;2023-07-31T08:50:22;19.90;99.90
31542;DHT22;18152;49.986;8.646;2023-07-31T08:52:50;20.00;99.90
31542;DHT22;18152;49.986;8.646;2023-07-31T08:55:16;20.10;99.90
31542;DHT22;18152;49.986;8.646;2023-07-31T08:57:43;20.10;99.90
31542;DHT22;18152;49.986;8.646;2023-07-31T09:00:10;20.00;99.90
31542;DHT22;18152;49.986;8.646;2023-07-31T09:05:18;20.50;99.90
31542;DHT22;18152;49.986;8.646;2023-07-31T09:07:46;20.30;99.90
31542;DHT22;18152;49.986;8.646;2023-07-31T09:10:13;20.20;99.90
31542;DHT22;18152;49.986;8.646;2023-07-31T09:12:38;20.10;99.90
31542;DHT22;18152;49.986;8.646;2023-07-31T09:15:05;20.00;99.90
31542;DHT22;18152;49.986;8.646;2023-07-31T09:17:32;19.80;99.90
31542;DHT22;18152;49.986;8.646;2023-07-31T09:20:15;19.60;99.90
31542;DHT22;18152;49.986;8.646;2023-07-31T09:22:42;19.50;99.90
31542;DHT22;18152;49.986;8.646;2023-07-31T09:28:00;19.60;99.90
31542;DHT22;18152;49.986;8.646;2023-07-31T09:30:26;19.70;99.90
31542;DHT22;18152;49.986;8.646;2023-07-31T09:33:02;20.00;99.90
31542;DHT22;18152;49.986;8.646;2023-07-31T09:35:32;20.30;99.90
31542;DHT22;18152;49.986;8.646;2023-07-31T09:38:00;20.80;99.90
31542;DHT22;18152;49.986;8.646;2023-07-31T09:40:33;21.20;99.90
31542;DHT22;18152;49.986;8.646;2023-07-31T09:43:01;21.40;99.90
31542;DHT22;18152;49.986;8.646;2023-07-31T09:45:27;21.30;99.90
31542;DHT22;18152;49.986;8.646;2023-07-31T09:47:53;21.20;99.90
31542;DHT22;18152;49.986;8.646;2023-07-31T09:50:21;21.30;99.90
31542;DHT22;18152;49.986;8.646;2023-07-31T09:52:47;21.10;99.90
31542;DHT22;18152;49.986;8.646;2023-07-31T09:55:13;21.10;99.90
31542;DHT22;18152;49.986;8.646;2023-07-31T09:57:43;21.00;99.90
31542;DHT22;18152;49.986;8.646;2023-07-31T10:00:10;20.80;99.90
31542;DHT22;18152;49.986;8.646;2023-07-31T10:02:37;20.80;99.90
31542;DHT22;18152;49.986;8.646;2023-07-31T10:05:04;20.80;99.90
31542;DHT22;18152;49.986;8.646;2023-07-31T10:07:31;20.80;99.90
31542;DHT22;18152;49.986;8.646;2023-07-31T10:10:00;20.80;99.90
31542;DHT22;18152;49.986;8.646;2023-07-31T10:12:26;20.70;99.90
31542;DHT22;18152;49.986;8.646;2023-07-31T10:14:56;20.60;99.90
31542;DHT22;18152;49.986;8.646;2023-07-31T10:17:22;20.60;99.90
31542;DHT22;18152;49.986;8.646;2023-07-31T10:19:49;20.70;99.90
31542;DHT22;18152;49.986;8.646;2023-07-31T10:22:15;20.60;99.90
31542;DHT22;18152;49.986;8.646;2023-07-31T10:24:45;20.70;99.90
31542;DHT22;18152;49.986;8.646;2023-07-31T10:27:11;20.90;99.90
31542;DHT22;18152;49.986;8.646;2023-07-31T10:29:41;21.00;99.90
31542;DHT22;18152;49.986;8.646;2023-07-31T10:32:09;21.20;99.90
31542;DHT22;18152;49.986;8.646;2023-07-31T10:34:38;21.10;99.90
31542;DHT22;18152;49.986;8.646;2023-07-31T10:37:21;21.10;99.90
31542;DHT22;18152;49.986;8.646;2023-07-31T10:45:06;21.20;99.90
31542;DHT22;18152;49.986;8.646;2023-07-31T10:48:06;21.50;99.90
31542;DHT22;18152;49.986;8.646;2023-07-31T10:50:36;21.60;99.90
31542;DHT22;18152;49.986;8.646;2023-07-31T10:53:02;21.60;99.90
31542;DHT22;18152;49.986;8.646;2023-07-31T10:55:42;21.70;99.90
31542;DHT22;18152;49.986;8.646;2023-07-31T10:58:13;22.20;99.90
31542;DHT22;18152;49.986;8.646;2023-07-31T11:00:41;22.40;99.90
31542;DHT22;18152;49.986;8.646;2023-07-31T11:03:09;22.40;99.90
31542;DHT22;18152;49.986;8.646;2023-07-31T11:08:17;21.90;99.90
31542;DHT22;18152;49.986;8.646;2023-07-31T11:10:44;21.70;99.90
31542;DHT22;18152;49.986;8.646;2023-07-31T11:13:10;21.50;99.90
31542;DHT22;18152;49.986;8.646;2023-07-31T11:15:36;21.40;99.90
31542;DHT22;18152;49.986;8.646;2023-07-31T11:18:02;21.30;99.90
31542;DHT22;18152;49.986;8.646;2023-07-31T11:20:33;21.30;99.90
31542;DHT22;18152;49.986;8.646;2023-07-31T21:57:25;16.30;99.90
31542;DHT22;18152;49.986;8.646;2023-07-31T21:59:50;16.30;99.90
31542;DHT22;18152;49.986;8.646;2023-07-31T22:02:16;16.30;99.90
31542;DHT22;18152;49.986;8.646;2023-07-31T22:04:41;16.30;99.90
31542;DHT22;18152;49.986;8.646;2023-07-31T22:07:09;16.30;99.90
31542;DHT22;18152;49.986;8.646;2023-07-31T22:09:35;16.40;99.90
31542;DHT22;18152;49.986;8.646;2023-07-31T22:12:01;16.40;99.90
31542;DHT22;18152;49.986;8.646;2023-07-31T22:14:27;16.20;99.90
31542;DHT22;18152;49.986;8.646;2023-07-31T22:16:53;16.30;99.90
31542;DHT22;18152;49.986;8.646;2023-07-31T22:19:19;16.20;99.90
31542;DHT22;18152;49.986;8.646;2023-07-31T22:21:44;16.20;99.90
31542;DHT22;18152;49.986;8.646;2023-07-31T22:24:10;16.20;99.90
31542;DHT22;18152;49.986;8.646;2023-07-31T22:26:35;16.20;99.90
31542;DHT22;18152;49.986;8.646;2023-07-31T22:29:01;16.10;99.90
31542;DHT22;18152;49.986;8.646;2023-07-31T22:31:27;16.20;99.90
31542;DHT22;18152;49.986;8.646;2023-07-31T22:33:52;16.20;99.90
31542;DHT22;18152;49.986;8.646;2023-07-31T22:36:18;16.20;99.90
31542;DHT22;18152;49.986;8.646;2023-07-31T22:38:43;16.20;99.90
31542;DHT22;18152;49.986;8.646;2023-07-31T22:41:09;16.10;99.90
31542;DHT22;18152;49.986;8.646;2023-07-31T22:43:34;16.20;99.90
31542;DHT22;18152;49.986;8.646;2023-07-31T22:46:00;16.20;99.90
31542;DHT22;18152;49.986;8.646;2023-07-31T22:48:26;16.10;99.90
31542;DHT22;18152;49.986;8.646;2023-07-31T22:50:51;16.10;99.90
31542;DHT22;18152;49.986;8.646;2023-07-31T22:53:17;16.10;99.90
31542;DHT22;18152;49.986;8.646;2023-07-31T22:55:43;16.10;99.90
31542;DHT22;18152;49.986;8.646;2023-07-31T22:58:08;16.10;99.90
31542;DHT22;18152;49.986;8.646;2023-07-31T23:00:34;16.10;99.90
31542;DHT22;18152;49.986;8.646;2023-07-31T23:03:00;16.10;99.90
31542;DHT22;18152;49.986;8.646;2023-07-31T23:05:25;16.10;99.90
31542;DHT22;18152;49.986;8.646;2023-07-31T23:07:51;16.10;99.90
31542;DHT22;18152;49.986;8.646;2023-07-31T23:10:16;16.10;99.90
31542;DHT22;18152;49.986;8.646;2023-07-31T23:12:42;16.10;99.90
31542;DHT22;18152;49.986;8.646;2023-07-31T23:15:08;16.10;99.90
31542;DHT22;18152;49.986;8.646;2023-07-31T23:17:33;16.10;99.90
31542;DHT22;18152;49.986;8.646;2023-07-31T23:19:59;16.10;99.90
31542;DHT22;18152;49.986;8.646;2023-07-31T23:22:25;16.10;99.90
31542;DHT22;18152;49.986;8.646;2023-07-31T23:24:52;16.10;99.90
31542;DHT22;18152;49.986;8.646;2023-07-31T23:27:18;16.10;99.90
31542;DHT22;18152;49.986;8.646;2023-07-31T23:29:43;16.10;99.90
31542;DHT22;18152;49.986;8.646;2023-07-31T23:32:09;16.10;99.90
31542;DHT22;18152;49.986;8.646;2023-07-31T23:34:36;16.10;99.90
31542;DHT22;18152;49.986;8.646;2023-07-31T23:37:02;16.20;99.90
31542;DHT22;18152;49.986;8.646;2023-07-31T23:39:27;16.10;99.90
31542;DHT22;18152;49.986;8.646;2023-07-31T23:41:53;16.20;99.90
31542;DHT22;18152;49.986;8.646;2023-07-31T23:44:19;16.20;99.90
31542;DHT22;18152;49.986;8.646;2023-07-31T23:46:44;16.10;99.90
31542;DHT22;18152;49.986;8.646;2023-07-31T23:49:13;16.10;99.90
31542;DHT22;18152;49.986;8.646;2023-07-31T23:51:40;16.10;99.90
31542;DHT22;18152;49.986;8.646;2023-07-31T23:54:06;16.00;99.90
31542;DHT22;18152;49.986;8.646;2023-07-31T23:56:32;16.00;99.90
31542;DHT22;18152;49.986;8.646;2023-07-31T23:58:58;16.10;99.90
